createdAt,value
2023-12-30T00:00:25.518Z,1.00
2023-12-30T00:02:52.617Z,1.00
2023-12-30T00:05:19.372Z,1.30
2023-12-30T00:07:46.582Z,0.80
2023-12-30T00:10:13.637Z,1.23
2023-12-30T00:12:40.713Z,0.90
2023-12-30T00:15:08.471Z,1.10
2023-12-30T00:17:35.330Z,0.93
2023-12-30T00:20:02.246Z,0.90
2023-12-30T00:22:29.121Z,1.23
2023-12-30T00:24:55.971Z,1.40
2023-12-30T00:27:22.803Z,0.90
2023-12-30T00:29:51.147Z,0.90
2023-12-30T00:32:18.293Z,0.87
2023-12-30T00:34:45.130Z,0.80
2023-12-30T00:37:14.736Z,2.13
2023-12-30T00:39:42.387Z,1.33
2023-12-30T00:42:09.214Z,0.87
2023-12-30T00:44:35.973Z,1.40
2023-12-30T00:47:02.752Z,0.90
2023-12-30T00:49:29.641Z,1.47
2023-12-30T00:51:56.541Z,1.10
2023-12-30T00:54:23.389Z,1.10
2023-12-30T00:56:50.157Z,1.13
2023-12-30T00:59:17.563Z,0.70
2023-12-30T01:01:44.469Z,1.10
2023-12-30T01:04:13.689Z,0.70
2023-12-30T01:06:40.520Z,1.10
2023-12-30T01:09:07.675Z,1.20
2023-12-30T01:11:35.240Z,0.77
2023-12-30T01:14:02.040Z,0.80
2023-12-30T01:16:28.964Z,1.03
2023-12-30T01:18:56.258Z,1.03
2023-12-30T01:21:23.144Z,1.10
2023-12-30T01:23:49.864Z,0.90
2023-12-30T01:26:16.591Z,0.90
2023-12-30T01:28:43.344Z,1.20
2023-12-30T01:31:10.933Z,1.17
2023-12-30T01:33:38.115Z,1.00
2023-12-30T01:36:05.168Z,1.20
2023-12-30T01:38:31.974Z,1.50
2023-12-30T01:40:58.775Z,1.00
2023-12-30T01:43:30.536Z,1.20
2023-12-30T01:46:04.921Z,1.00
2023-12-30T01:48:32.858Z,0.93
2023-12-30T01:51:01.909Z,1.37
2023-12-30T01:53:32.020Z,1.00
2023-12-30T01:55:59.435Z,1.00
2023-12-30T01:58:27.107Z,1.10
2023-12-30T02:00:56.255Z,1.10
2023-12-30T02:03:23.433Z,0.90
2023-12-30T02:05:50.258Z,1.00
2023-12-30T02:08:18.332Z,1.00
2023-12-30T02:10:45.811Z,0.80
2023-12-30T02:13:12.725Z,0.90
2023-12-30T02:15:39.498Z,0.97
2023-12-30T02:18:06.527Z,1.63
2023-12-30T02:20:34.682Z,0.83
2023-12-30T02:23:02.223Z,1.20
2023-12-30T02:25:29.247Z,1.83
2023-12-30T02:27:56.091Z,1.00
2023-12-30T02:30:25.216Z,0.80
2023-12-30T02:32:56.152Z,0.90
2023-12-30T02:35:24.371Z,1.20
2023-12-30T02:37:51.177Z,0.77
2023-12-30T02:40:18.036Z,1.07
2023-12-30T02:42:44.842Z,0.60
2023-12-30T02:45:12.432Z,0.70
2023-12-30T02:47:39.278Z,0.60
2023-12-30T02:50:06.734Z,0.50
2023-12-30T02:52:33.620Z,0.50
2023-12-30T02:55:01.957Z,1.03
2023-12-30T02:57:28.822Z,0.70
2023-12-30T02:59:55.655Z,0.60
2023-12-30T03:02:22.450Z,0.80
2023-12-30T03:04:49.332Z,0.60
2023-12-30T03:07:16.400Z,0.70
2023-12-30T03:09:43.235Z,0.60
2023-12-30T03:12:10.311Z,0.70
2023-12-30T03:14:37.215Z,0.60
2023-12-30T03:17:04.325Z,0.50
2023-12-30T03:19:31.745Z,0.70
2023-12-30T03:21:58.558Z,1.03
2023-12-30T03:24:25.349Z,0.80
2023-12-30T03:26:52.373Z,0.70
2023-12-30T03:29:19.150Z,0.63
2023-12-30T03:31:46.010Z,0.73
2023-12-30T03:34:13.061Z,0.60
2023-12-30T03:36:39.871Z,0.73
2023-12-30T03:39:06.896Z,0.90
2023-12-30T03:41:33.667Z,0.80
2023-12-30T03:44:00.513Z,0.73
2023-12-30T03:46:27.381Z,0.50
2023-12-30T03:48:54.314Z,0.70
2023-12-30T03:51:21.178Z,0.90
2023-12-30T03:53:48.796Z,0.80
2023-12-30T03:56:15.555Z,0.73
2023-12-30T03:58:42.364Z,0.73
2023-12-30T04:01:09.404Z,0.50
2023-12-30T04:03:36.279Z,0.60
2023-12-30T04:06:03.031Z,0.67
2023-12-30T04:08:29.846Z,1.00
2023-12-30T04:10:56.543Z,0.60
2023-12-30T04:13:23.339Z,0.50
2023-12-30T04:15:50.104Z,0.73
2023-12-30T04:18:16.956Z,0.50
2023-12-30T04:20:43.890Z,0.60
2023-12-30T04:23:10.668Z,0.50
2023-12-30T04:25:37.620Z,0.50
2023-12-30T04:28:04.768Z,0.70
2023-12-30T04:30:31.570Z,0.63
2023-12-30T04:32:58.493Z,0.50
2023-12-30T04:35:25.317Z,0.60
2023-12-30T04:37:52.109Z,0.40
2023-12-30T04:40:18.927Z,0.50
2023-12-30T04:42:45.729Z,0.50
2023-12-30T04:45:13.977Z,0.50
2023-12-30T04:47:41.346Z,0.40
2023-12-30T04:50:09.092Z,0.70
2023-12-30T04:52:35.998Z,0.43
2023-12-30T04:55:04.109Z,0.57
2023-12-30T04:57:31.101Z,0.73
2023-12-30T04:59:58.824Z,0.90
2023-12-30T05:02:25.595Z,0.43
2023-12-30T05:04:52.422Z,0.87
2023-12-30T05:07:19.205Z,0.47
2023-12-30T05:09:45.970Z,0.50
2023-12-30T05:12:12.725Z,0.60
2023-12-30T05:14:39.505Z,0.60
2023-12-30T05:17:06.469Z,0.67
2023-12-30T05:19:33.294Z,0.60
2023-12-30T05:22:00.137Z,0.50
2023-12-30T05:24:27.012Z,0.70
2023-12-30T05:26:53.836Z,0.60
2023-12-30T05:29:21.768Z,0.50
2023-12-30T05:31:49.337Z,0.50
2023-12-30T05:34:16.537Z,0.60
2023-12-30T05:36:43.339Z,0.70
2023-12-30T05:39:10.166Z,0.60
2023-12-30T05:41:40.358Z,0.77
2023-12-30T05:44:07.193Z,0.50
2023-12-30T05:46:34.134Z,0.50
2023-12-30T05:49:01.173Z,0.70
2023-12-30T05:51:28.172Z,0.73
2023-12-30T05:53:54.968Z,0.60
2023-12-30T05:56:25.978Z,0.60
2023-12-30T05:58:56.214Z,0.60
2023-12-30T06:01:23.136Z,0.60
2023-12-30T06:03:50.115Z,0.50
2023-12-30T06:06:17.198Z,0.73
2023-12-30T06:08:44.169Z,0.57
2023-12-30T06:11:13.519Z,0.60
2023-12-30T06:13:42.249Z,0.80
2023-12-30T06:16:09.806Z,0.77
2023-12-30T06:18:37.197Z,0.60
2023-12-30T06:21:06.067Z,0.60
2023-12-30T06:23:33.591Z,0.80
2023-12-30T06:26:02.600Z,0.60
2023-12-30T06:28:29.572Z,2.33
2023-12-30T06:30:57.779Z,0.60
2023-12-30T06:33:25.421Z,0.70
2023-12-30T06:35:52.544Z,0.80
2023-12-30T06:38:19.359Z,0.90
2023-12-30T06:40:49.216Z,0.67
2023-12-30T06:43:16.388Z,0.50
2023-12-30T06:45:43.367Z,0.60
2023-12-30T06:48:10.730Z,0.70
2023-12-30T06:50:37.960Z,0.70
2023-12-30T06:53:05.213Z,0.80
2023-12-30T06:55:38.509Z,1.90
2023-12-30T06:58:09.619Z,0.73
2023-12-30T07:00:37.017Z,0.97
2023-12-30T07:03:04.739Z,0.70
2023-12-30T07:05:37.092Z,1.20
2023-12-30T07:08:04.616Z,0.70
2023-12-30T07:10:31.459Z,2.30
2023-12-30T07:12:58.427Z,1.10
2023-12-30T07:15:25.213Z,0.83
2023-12-30T07:17:52.056Z,0.97
2023-12-30T07:20:18.946Z,0.93
2023-12-30T07:22:45.736Z,0.93
2023-12-30T07:25:12.635Z,0.80
2023-12-30T07:27:41.511Z,0.80
2023-12-30T07:30:08.844Z,1.00
2023-12-30T07:32:36.092Z,0.70
2023-12-30T07:35:03.162Z,0.67
2023-12-30T07:37:30.432Z,2.40
2023-12-30T07:39:57.314Z,0.60
2023-12-30T07:42:24.228Z,0.90
2023-12-30T07:44:52.463Z,0.87
2023-12-30T07:47:19.644Z,1.10
2023-12-30T07:49:48.220Z,0.70
2023-12-30T07:52:15.411Z,0.93
2023-12-30T07:54:42.416Z,0.70
2023-12-30T07:57:09.292Z,1.00
2023-12-30T07:59:36.137Z,1.20
2023-12-30T08:02:03.542Z,0.77
2023-12-30T08:04:30.519Z,2.00
2023-12-30T08:06:57.376Z,1.30
2023-12-30T08:09:24.309Z,1.10
2023-12-30T08:11:59.214Z,1.00
2023-12-30T08:14:29.538Z,0.77
2023-12-30T08:16:56.482Z,1.10
2023-12-30T08:19:23.338Z,0.60
2023-12-30T08:21:50.391Z,0.73
2023-12-30T08:24:20.276Z,1.13
2023-12-30T08:26:47.523Z,0.90
2023-12-30T08:29:15.867Z,1.20
2023-12-30T08:31:46.851Z,1.10
2023-12-30T08:34:15.027Z,0.87
2023-12-30T08:36:43.359Z,1.10
2023-12-30T08:39:10.129Z,0.83
2023-12-30T08:41:37.028Z,1.07
2023-12-30T08:44:03.827Z,1.70
2023-12-30T08:46:30.895Z,1.10
2023-12-30T08:48:57.896Z,1.40
2023-12-30T08:51:24.739Z,0.73
2023-12-30T08:53:51.516Z,0.80
2023-12-30T08:56:18.283Z,1.33
2023-12-30T08:58:45.272Z,1.70
2023-12-30T09:01:12.251Z,1.47
2023-12-30T09:03:39.086Z,1.60
2023-12-30T09:06:06.710Z,1.10
2023-12-30T09:08:33.513Z,1.10
2023-12-30T09:11:00.295Z,1.40
2023-12-30T09:13:27.217Z,1.53
2023-12-30T09:15:54.015Z,1.50
2023-12-30T09:18:20.980Z,1.57
2023-12-30T09:20:47.865Z,1.23
2023-12-30T09:23:14.656Z,1.43
2023-12-30T09:25:41.501Z,1.50
2023-12-30T09:28:08.337Z,1.53
2023-12-30T09:30:35.439Z,1.77
2023-12-30T09:33:02.635Z,1.97
2023-12-30T09:35:30.007Z,1.40
2023-12-30T09:37:56.781Z,1.73
2023-12-30T09:40:23.603Z,1.00
2023-12-30T09:42:52.221Z,1.47
2023-12-30T09:45:19.990Z,1.63
2023-12-30T09:47:48.411Z,1.40
2023-12-30T09:50:15.495Z,1.33
2023-12-30T09:52:42.832Z,1.33
2023-12-30T09:55:09.705Z,1.60
2023-12-30T09:57:36.488Z,1.70
2023-12-30T10:00:06.722Z,2.30
2023-12-30T10:02:35.295Z,1.60
2023-12-30T10:05:02.505Z,1.20
2023-12-30T10:07:32.960Z,1.77
2023-12-30T10:10:00.003Z,1.07
2023-12-30T10:12:26.931Z,1.23
2023-12-30T10:14:53.816Z,1.70
2023-12-30T10:17:21.429Z,1.93
2023-12-30T10:19:48.763Z,1.10
2023-12-30T10:22:16.326Z,1.33
2023-12-30T10:24:43.673Z,1.70
2023-12-30T10:27:11.679Z,1.30
2023-12-30T10:29:47.005Z,1.27
2023-12-30T10:32:22.053Z,0.97
2023-12-30T10:34:49.224Z,1.73
2023-12-30T10:37:17.371Z,1.73
2023-12-30T10:39:46.748Z,1.00
2023-12-30T10:42:14.320Z,1.27
2023-12-30T10:44:41.108Z,1.87
2023-12-30T10:47:15.174Z,1.17
2023-12-30T10:49:51.303Z,1.77
2023-12-30T10:52:23.775Z,1.80
2023-12-30T10:55:00.119Z,2.20
2023-12-30T10:57:31.860Z,2.00
2023-12-30T11:00:00.336Z,2.10
2023-12-30T11:02:27.664Z,1.83
2023-12-30T11:04:57.329Z,1.40
2023-12-30T11:07:27.032Z,1.67
2023-12-30T11:09:53.808Z,1.60
2023-12-30T11:12:20.622Z,2.20
2023-12-30T11:14:49.711Z,1.57
2023-12-30T11:17:36.978Z,1.97
2023-12-30T11:20:27.755Z,2.03
2023-12-30T11:22:55.977Z,1.80
2023-12-30T11:25:23.184Z,1.50
2023-12-30T11:27:55.015Z,2.40
2023-12-30T11:30:28.448Z,2.03
2023-12-30T11:32:59.289Z,2.43
2023-12-30T11:35:26.650Z,2.30
2023-12-30T11:37:54.325Z,1.40
2023-12-30T11:40:22.128Z,2.27
2023-12-30T11:42:49.041Z,1.67
2023-12-30T11:45:15.977Z,1.90
2023-12-30T11:47:46.490Z,2.37
2023-12-30T11:50:14.834Z,1.77
2023-12-30T11:52:48.119Z,1.90
2023-12-30T11:55:14.939Z,1.63
2023-12-30T11:57:42.244Z,1.50
2023-12-30T12:00:09.749Z,1.37
2023-12-30T12:02:37.053Z,2.13
2023-12-30T12:05:06.112Z,1.93
2023-12-30T12:07:33.462Z,1.57
2023-12-30T12:10:00.500Z,2.27
2023-12-30T12:12:39.000Z,2.30
2023-12-30T12:15:08.573Z,1.57
2023-12-30T12:17:36.905Z,1.87
2023-12-30T12:20:08.616Z,2.30
2023-12-30T12:22:35.424Z,4.40
2023-12-30T12:25:03.920Z,2.00
2023-12-30T12:27:31.590Z,1.87
2023-12-30T12:29:59.825Z,2.60
2023-12-30T12:32:27.908Z,1.80
2023-12-30T12:34:55.587Z,2.73
2023-12-30T12:37:23.783Z,2.67
2023-12-30T12:39:50.645Z,1.80
2023-12-30T12:42:27.296Z,2.33
2023-12-30T12:44:57.785Z,2.70
2023-12-30T12:47:24.944Z,2.27
2023-12-30T12:49:51.967Z,2.07
2023-12-30T12:52:19.087Z,2.30
2023-12-30T12:54:46.086Z,2.10
2023-12-30T12:57:12.837Z,2.10
2023-12-30T12:59:40.268Z,2.40
2023-12-30T13:02:10.848Z,1.73
2023-12-30T13:04:38.475Z,1.80
2023-12-30T13:07:07.249Z,2.00
2023-12-30T13:09:44.078Z,2.03
2023-12-30T13:12:10.963Z,2.00
2023-12-30T13:14:38.955Z,2.10
2023-12-30T13:17:12.716Z,1.70
2023-12-30T13:19:40.993Z,2.00
2023-12-30T13:22:09.363Z,2.43
2023-12-30T13:24:38.951Z,3.00
2023-12-30T13:27:07.178Z,2.20
2023-12-30T13:29:34.588Z,1.80
2023-12-30T13:32:01.429Z,1.70
2023-12-30T13:34:30.431Z,2.17
2023-12-30T13:37:05.787Z,2.23
2023-12-30T13:39:38.858Z,2.00
2023-12-30T13:42:09.129Z,2.33
2023-12-30T13:44:42.345Z,1.90
2023-12-30T13:47:28.289Z,2.37
2023-12-30T13:50:13.838Z,2.23
2023-12-30T13:52:40.850Z,1.77
2023-12-30T13:55:09.519Z,1.77
2023-12-30T13:57:38.304Z,2.17
2023-12-30T14:00:08.014Z,1.80
2023-12-30T14:02:38.986Z,2.03
2023-12-30T14:05:08.717Z,1.90
2023-12-30T14:07:35.994Z,3.00
2023-12-30T14:10:07.677Z,2.60
2023-12-30T14:12:35.846Z,1.83
2023-12-30T14:15:13.554Z,1.90
2023-12-30T14:17:43.783Z,4.87
2023-12-30T14:20:11.874Z,2.57
2023-12-30T14:22:39.045Z,2.73
2023-12-30T14:25:06.366Z,3.20
2023-12-30T14:27:36.959Z,2.73
2023-12-30T14:30:07.379Z,3.47
2023-12-30T14:32:35.007Z,3.40
2023-12-30T14:35:02.890Z,2.53
2023-12-30T14:37:29.833Z,2.03
2023-12-30T14:39:56.681Z,2.63
2023-12-30T14:42:23.525Z,3.73
2023-12-30T14:44:50.335Z,2.70
2023-12-30T14:47:17.183Z,2.80
2023-12-30T14:49:44.066Z,2.87
2023-12-30T14:52:10.958Z,2.80
2023-12-30T14:54:39.421Z,2.80
2023-12-30T14:57:07.893Z,2.70
2023-12-30T14:59:35.759Z,3.80
2023-12-30T15:02:03.484Z,2.97
2023-12-30T15:04:30.360Z,2.97
2023-12-30T15:06:57.383Z,3.40
2023-12-30T15:09:24.201Z,3.97
2023-12-30T15:11:51.008Z,3.97
2023-12-30T15:14:17.793Z,4.20
2023-12-30T15:16:44.722Z,3.03
2023-12-30T15:19:11.618Z,3.63
2023-12-30T15:21:38.802Z,3.20
2023-12-30T15:24:05.949Z,3.23
2023-12-30T15:26:32.772Z,3.70
2023-12-30T15:28:59.626Z,4.33
2023-12-30T15:31:26.665Z,4.60
2023-12-30T15:33:53.650Z,4.80
2023-12-30T15:36:22.238Z,7.30
2023-12-30T15:38:49.117Z,5.97
2023-12-30T15:41:16.025Z,16.10
2023-12-30T15:43:42.929Z,8.10
2023-12-30T15:46:11.809Z,7.40
2023-12-30T15:48:39.871Z,7.43
2023-12-30T15:51:06.875Z,7.37
2023-12-30T15:53:33.978Z,8.77
2023-12-30T15:56:01.081Z,7.33
2023-12-30T15:58:28.118Z,5.10
2023-12-30T16:00:54.984Z,4.80
2023-12-30T16:03:22.258Z,3.60
2023-12-30T16:05:49.673Z,4.43
2023-12-30T16:08:17.515Z,4.23
2023-12-30T16:10:44.884Z,4.73
2023-12-30T16:13:12.491Z,4.40
2023-12-30T16:15:39.276Z,6.40
2023-12-30T16:18:06.373Z,7.30
2023-12-30T16:20:33.351Z,5.60
2023-12-30T16:23:04.828Z,5.57
2023-12-30T16:25:32.392Z,4.70
2023-12-30T16:27:59.594Z,4.20
2023-12-30T16:30:26.849Z,3.70
2023-12-30T16:32:53.910Z,5.60
2023-12-30T16:35:20.941Z,5.00
2023-12-30T16:37:48.971Z,5.17
2023-12-30T16:40:16.055Z,4.53
2023-12-30T16:42:42.896Z,4.30
2023-12-30T16:45:10.087Z,4.23
2023-12-30T16:47:38.558Z,5.80
2023-12-30T16:50:09.774Z,5.97
2023-12-30T16:52:37.604Z,5.33
2023-12-30T16:55:07.923Z,4.33
2023-12-30T16:57:34.688Z,4.83
2023-12-30T17:00:02.424Z,4.60
2023-12-30T17:02:29.780Z,5.60
2023-12-30T17:04:56.903Z,5.70
2023-12-30T17:07:23.812Z,6.23
2023-12-30T17:09:50.545Z,6.43
2023-12-30T17:12:17.396Z,5.27
2023-12-30T17:14:45.026Z,5.20
2023-12-30T17:17:11.923Z,6.03
2023-12-30T17:19:39.041Z,5.70
2023-12-30T17:22:05.917Z,5.40
2023-12-30T17:24:33.604Z,6.27
2023-12-30T17:27:02.417Z,5.70
2023-12-30T17:29:30.263Z,4.90
2023-12-30T17:31:57.189Z,5.30
2023-12-30T17:34:24.023Z,5.80
2023-12-30T17:36:50.916Z,5.30
2023-12-30T17:39:17.755Z,5.30
2023-12-30T17:41:44.967Z,4.80
2023-12-30T17:44:11.704Z,5.73
2023-12-30T17:46:38.568Z,4.80
2023-12-30T17:49:05.477Z,4.50
2023-12-30T17:51:32.297Z,4.43
2023-12-30T17:53:59.025Z,5.60
2023-12-30T17:56:25.827Z,4.70
2023-12-30T17:58:54.374Z,4.40
2023-12-30T18:01:21.269Z,5.00
2023-12-30T18:03:48.187Z,5.37
2023-12-30T18:06:15.209Z,5.40
2023-12-30T18:08:41.996Z,5.43
2023-12-30T18:11:08.822Z,5.57
2023-12-30T18:13:35.784Z,6.10
2023-12-30T18:16:02.838Z,6.20
2023-12-30T18:18:29.706Z,6.20
2023-12-30T18:20:57.041Z,7.10
2023-12-30T18:23:24.125Z,7.40
2023-12-30T18:25:51.041Z,6.93
2023-12-30T18:28:17.992Z,6.60
2023-12-30T18:30:45.109Z,6.70
2023-12-30T18:33:15.297Z,5.93
2023-12-30T18:35:42.585Z,5.70
2023-12-30T18:38:09.352Z,5.53
2023-12-30T18:40:37.981Z,6.30
2023-12-30T18:43:05.299Z,6.40
2023-12-30T18:45:32.208Z,6.83
2023-12-30T18:47:59.126Z,5.77
2023-12-30T18:50:26.032Z,6.03
2023-12-30T18:52:53.234Z,6.50
2023-12-30T18:55:20.189Z,6.17
2023-12-30T18:57:47.023Z,6.20
2023-12-30T19:00:14.339Z,6.30
2023-12-30T19:02:42.653Z,5.60
2023-12-30T19:05:11.320Z,5.70
2023-12-30T19:07:38.454Z,6.70
2023-12-30T19:10:06.063Z,5.77
2023-12-30T19:12:32.973Z,5.67
2023-12-30T19:14:59.827Z,6.67
2023-12-30T19:17:28.168Z,7.80
2023-12-30T19:19:55.265Z,6.83
2023-12-30T19:22:22.078Z,8.03
2023-12-30T19:24:48.954Z,7.17
2023-12-30T19:27:17.147Z,9.20
2023-12-30T19:29:43.958Z,16.00
2023-12-30T19:32:10.803Z,18.13
2023-12-30T19:34:37.701Z,20.17
2023-12-30T19:37:04.930Z,17.00
2023-12-30T19:39:31.847Z,18.07
2023-12-30T19:41:58.579Z,15.53
2023-12-30T19:44:25.483Z,15.10
2023-12-30T19:46:52.595Z,14.30
2023-12-30T19:49:20.854Z,14.53
2023-12-30T19:51:47.667Z,14.53
2023-12-30T19:54:14.496Z,14.50
2023-12-30T19:56:41.227Z,13.67
2023-12-30T19:59:08.266Z,13.03
2023-12-30T20:01:35.022Z,10.90
2023-12-30T20:04:03.485Z,13.77
2023-12-30T20:06:30.315Z,14.37
2023-12-30T20:08:57.112Z,12.97
2023-12-30T20:11:26.825Z,13.33
2023-12-30T20:13:55.415Z,12.23
2023-12-30T20:16:22.179Z,12.47
2023-12-30T20:18:49.051Z,12.40
2023-12-30T20:21:15.864Z,11.10
2023-12-30T20:23:42.773Z,14.13
2023-12-30T20:26:09.606Z,12.33
2023-12-30T20:28:36.457Z,8.60
2023-12-30T20:31:05.510Z,8.80
2023-12-30T20:33:32.639Z,9.33
2023-12-30T20:35:59.497Z,10.27
2023-12-30T20:38:26.323Z,10.27
2023-12-30T20:40:54.280Z,12.13
2023-12-30T20:43:21.397Z,12.03
2023-12-30T20:45:48.830Z,10.67
2023-12-30T20:48:17.321Z,11.70
2023-12-30T20:50:44.176Z,10.67
2023-12-30T20:53:12.101Z,10.70
2023-12-30T20:55:40.162Z,10.00
2023-12-30T20:58:07.480Z,10.00
2023-12-30T21:00:34.507Z,10.40
2023-12-30T21:03:02.108Z,10.70
2023-12-30T21:05:29.236Z,10.67
2023-12-30T21:07:56.430Z,11.40
2023-12-30T21:10:23.407Z,11.43
2023-12-30T21:12:51.513Z,11.40
2023-12-30T21:15:18.590Z,10.63
2023-12-30T21:17:45.370Z,9.80
2023-12-30T21:20:12.659Z,9.27
2023-12-30T21:22:39.949Z,9.23
2023-12-30T21:25:15.992Z,10.27
2023-12-30T21:27:50.001Z,9.13
2023-12-30T21:30:16.923Z,10.03
2023-12-30T21:32:45.402Z,9.23
2023-12-30T21:35:13.651Z,7.43
2023-12-30T21:37:45.510Z,7.93
2023-12-30T21:40:17.304Z,8.40
2023-12-30T21:42:44.128Z,7.53
2023-12-30T21:45:11.712Z,7.90
2023-12-30T21:47:38.726Z,8.17
2023-12-30T21:50:06.266Z,7.07
2023-12-30T21:52:35.704Z,7.90
2023-12-30T21:55:05.171Z,7.27
2023-12-30T21:57:32.041Z,7.67
2023-12-30T22:00:00.576Z,6.60
2023-12-30T22:02:28.409Z,6.23
2023-12-30T22:04:55.389Z,6.47
2023-12-30T22:07:23.360Z,7.10
2023-12-30T22:09:50.348Z,6.37
2023-12-30T22:12:17.189Z,6.27
2023-12-30T22:14:43.910Z,6.20
2023-12-30T22:17:11.468Z,6.20
2023-12-30T22:19:38.603Z,5.50
2023-12-30T22:22:05.506Z,6.30
2023-12-30T22:24:32.522Z,5.60
2023-12-30T22:26:59.349Z,5.07
2023-12-30T22:29:26.310Z,5.30
2023-12-30T22:31:53.152Z,5.87
2023-12-30T22:34:20.076Z,6.03
2023-12-30T22:36:47.021Z,5.50
2023-12-30T22:39:13.956Z,5.20
2023-12-30T22:41:40.922Z,6.00
2023-12-30T22:44:07.691Z,5.83
2023-12-30T22:46:37.160Z,5.17
2023-12-30T22:49:04.060Z,5.90
2023-12-30T22:51:30.899Z,5.63
2023-12-30T22:53:57.697Z,6.60
2023-12-30T22:56:24.622Z,5.57
2023-12-30T22:58:51.448Z,5.60
2023-12-30T23:01:18.463Z,5.47
2023-12-30T23:03:45.293Z,5.83
2023-12-30T23:06:12.145Z,5.70
2023-12-30T23:08:39.330Z,5.23
2023-12-30T23:11:06.143Z,5.70
2023-12-30T23:13:32.950Z,5.70
2023-12-30T23:15:59.738Z,5.30
2023-12-30T23:18:26.520Z,5.03
2023-12-30T23:20:53.266Z,5.20
2023-12-30T23:23:20.066Z,5.40
2023-12-30T23:25:46.994Z,4.67
2023-12-30T23:28:13.838Z,3.93
2023-12-30T23:30:41.130Z,4.13
2023-12-30T23:33:08.222Z,4.40
2023-12-30T23:35:35.356Z,3.47
2023-12-30T23:38:02.101Z,3.90
2023-12-30T23:40:28.941Z,3.70
2023-12-30T23:42:56.910Z,4.73
2023-12-30T23:45:23.752Z,4.40
2023-12-30T23:47:51.067Z,4.30
2023-12-30T23:50:17.916Z,3.77
2023-12-30T23:52:46.174Z,4.77
2023-12-30T23:55:13.206Z,4.10
2023-12-30T23:57:40.246Z,3.90
